Time;durP1;ratioP1;P1;durP2;ratioP2;P2;SDS_P1;SDS_P2;PMS_P1;PMS_P2;Temp;Humidity;BMP_temperature;BMP_pressure;BME280_temperature;BME280_humidity;BME280_pressure;Samples;Min_cycle;Max_cycle;Signal;HPM_P1;HPM_P2
2023/10/01 00:01:37;;;;;;;13.48;3.00;;;;;;;;;;5052455;28;20411;-43
2023/10/01 00:04:04;;;;;;;14.88;3.03;;;;;;;;;;5051757;28;20029;-41
2023/10/01 00:06:31;;;;;;;14.30;3.20;;;;;;;;;;5052065;28;20414;-42
2023/10/01 00:08:58;;;;;;;13.50;3.40;;;;;;;;;;5052140;28;20032;-43
2023/10/01 00:11:26;;;;;;;13.00;3.40;;;;;;;;;;5051049;28;20025;-43
2023/10/01 00:13:54;;;;;;;12.48;2.97;;;;;;;;;;5051763;28;20098;-43
2023/10/01 00:16:21;;;;;;;14.10;3.40;;;;;;;;;;5051885;28;20436;-44
2023/10/01 00:18:48;;;;;;;15.18;3.42;;;;;;;;;;5051200;28;20504;-42
2023/10/01 00:21:15;;;;;;;21.80;3.78;;;;;;;;;;5052021;28;20041;-43
2023/10/01 00:23:42;;;;;;;11.40;3.50;;;;;;;;;;5051595;28;20041;-43
2023/10/01 00:26:10;;;;;;;16.20;3.72;;;;;;;;;;5051898;28;20017;-43
2023/10/01 00:28:37;;;;;;;18.70;3.67;;;;;;;;;;5051579;28;20158;-43
2023/10/01 00:31:04;;;;;;;19.63;4.53;;;;;;;;;;5051810;28;20029;-42
2023/10/01 00:33:31;;;;;;;17.77;4.03;;;;;;;;;;5051437;28;20036;-42
2023/10/01 00:35:58;;;;;;;13.35;4.20;;;;;;;;;;5051723;28;20602;-42
2023/10/01 00:38:26;;;;;;;19.90;4.40;;;;;;;;;;5050837;28;20037;-43
2023/10/01 00:40:54;;;;;;;16.90;4.38;;;;;;;;;;5051207;28;20039;-42
2023/10/01 00:43:31;;;;;;;20.00;4.75;;;;;;;;;;5048941;28;20032;-42
2023/10/01 00:45:59;;;;;;;17.27;4.70;;;;;;;;;;5051323;28;20029;-43
2023/10/01 00:48:27;;;;;;;17.15;4.40;;;;;;;;;;5051441;28;20114;-42
2023/10/01 00:50:54;;;;;;;20.35;4.38;;;;;;;;;;5041608;28;20196;-42
2023/10/01 00:53:22;;;;;;;20.48;4.97;;;;;;;;;;5051055;28;20104;-41
2023/10/01 00:55:51;;;;;;;27.23;5.18;;;;;;;;;;5050886;28;20033;-41
2023/10/01 00:58:18;;;;;;;24.05;5.05;;;;;;;;;;5050831;28;20029;-43
2023/10/01 01:00:45;;;;;;;24.65;5.22;;;;;;;;;;5032915;28;20055;-42
2023/10/01 01:03:18;;;;;;;23.48;5.70;;;;;;;;;;5050629;28;20529;-42
2023/10/01 01:08:46;;;;;;;21.17;5.85;;;;;;;;;;5042266;28;20044;-42
2023/10/01 01:11:17;;;;;;;19.27;6.20;;;;;;;;;;5043210;28;20086;-42
2023/10/01 01:13:44;;;;;;;23.02;6.63;;;;;;;;;;5050588;28;20029;-43
2023/10/01 01:16:19;;;;;;;28.77;6.82;;;;;;;;;;5028880;28;20086;-42
2023/10/01 01:18:51;;;;;;;25.83;6.85;;;;;;;;;;5036493;28;20029;-43
2023/10/01 01:21:18;;;;;;;29.20;8.38;;;;;;;;;;5037399;28;20500;-45
2023/10/01 01:23:46;;;;;;;40.17;8.57;;;;;;;;;;5034317;28;20045;-41
2023/10/01 01:26:14;;;;;;;34.55;8.50;;;;;;;;;;5046896;28;20029;-42
2023/10/01 01:28:44;;;;;;;28.00;8.38;;;;;;;;;;5042804;28;20036;-43
2023/10/01 01:31:13;;;;;;;26.60;8.52;;;;;;;;;;5038268;28;20029;-41
2023/10/01 01:33:40;;;;;;;28.73;7.80;;;;;;;;;;5046632;28;20037;-41
2023/10/01 01:36:10;;;;;;;29.20;8.40;;;;;;;;;;5045334;28;20031;-41
2023/10/01 01:38:41;;;;;;;22.33;7.55;;;;;;;;;;5040460;28;20372;-42
2023/10/01 01:41:12;;;;;;;31.88;7.25;;;;;;;;;;5043503;28;20075;-41
2023/10/01 01:43:39;;;;;;;25.27;7.80;;;;;;;;;;5041599;28;20387;-42
2023/10/01 01:46:11;;;;;;;21.13;7.30;;;;;;;;;;5049858;28;20372;-41
2023/10/01 01:48:40;;;;;;;31.52;7.35;;;;;;;;;;5047915;28;20041;-43
2023/10/01 01:51:08;;;;;;;25.25;6.80;;;;;;;;;;5039921;28;20492;-42
2023/10/01 01:53:36;;;;;;;24.20;7.28;;;;;;;;;;5034999;28;20531;-43
2023/10/01 01:56:10;;;;;;;19.02;6.53;;;;;;;;;;5046497;28;20083;-42
2023/10/01 01:58:39;;;;;;;26.10;6.43;;;;;;;;;;5032690;28;20033;-42
2023/10/01 02:03:44;;;;;;;19.83;6.22;;;;;;;;;;5049169;28;20083;-41
2023/10/01 02:06:11;;;;;;;17.27;5.80;;;;;;;;;;5050480;28;20071;-42
2023/10/01 02:08:59;;;;;;;18.67;5.85;;;;;;;;;;5048195;28;20068;-42
2023/10/01 02:11:26;;;;;;;22.58;5.43;;;;;;;;;;5050003;28;20135;-42
2023/10/01 02:13:59;;;;;;;24.02;5.88;;;;;;;;;;5045963;28;20457;-42
2023/10/01 02:18:58;;;;;;;24.73;5.05;;;;;;;;;;5043205;28;20025;-41
2023/10/01 02:21:47;;;;;;;28.58;5.65;;;;;;;;;;5043418;28;20491;-40
2023/10/01 02:24:37;;;;;;;28.35;6.15;;;;;;;;;;5047446;28;20074;-41
2023/10/01 02:27:04;;;;;;;24.00;5.72;;;;;;;;;;5047841;28;20514;-38
2023/10/01 02:29:45;;;;;;;25.83;5.80;;;;;;;;;;5049053;28;20112;-41
2023/10/01 02:32:16;;;;;;;34.37;5.53;;;;;;;;;;5047283;28;20100;-39
2023/10/01 02:34:43;;;;;;;20.38;4.90;;;;;;;;;;5050978;28;20048;-40
2023/10/01 02:37:15;;;;;;;21.83;5.03;;;;;;;;;;5052229;28;20498;-41
2023/10/01 02:39:42;;;;;;;26.13;5.30;;;;;;;;;;5052184;28;20041;-38
2023/10/01 02:42:09;;;;;;;21.25;4.97;;;;;;;;;;5053431;28;20347;-42
2023/10/01 02:44:38;;;;;;;21.98;4.57;;;;;;;;;;5053450;28;20021;-40
2023/10/01 02:47:25;;;;;;;24.25;5.22;;;;;;;;;;5053460;28;20024;-41
2023/10/01 02:49:53;;;;;;;18.50;4.50;;;;;;;;;;5052948;28;20033;-39
2023/10/01 02:52:39;;;;;;;24.23;4.57;;;;;;;;;;5053198;28;20475;-42
2023/10/01 02:55:17;;;;;;;16.65;4.38;;;;;;;;;;5052368;28;20112;-38
2023/10/01 02:57:45;;;;;;;21.58;4.90;;;;;;;;;;5052114;28;20029;-40
2023/10/01 03:02:40;;;;;;;14.77;3.95;;;;;;;;;;5053328;28;20041;-41
2023/10/01 03:05:14;;;;;;;13.93;4.32;;;;;;;;;;5052907;28;20116;-43
2023/10/01 03:07:45;;;;;;;20.55;4.18;;;;;;;;;;5053181;28;20021;-40
2023/10/01 03:10:14;;;;;;;24.27;4.43;;;;;;;;;;5052846;28;20546;-41
2023/10/01 03:12:49;;;;;;;19.83;4.15;;;;;;;;;;5035249;28;20029;-42
2023/10/01 03:18:06;;;;;;;15.80;3.88;;;;;;;;;;5052808;28;20032;-43
2023/10/01 03:28:35;;;;;;;11.23;3.55;;;;;;;;;;5049973;28;20487;-40
2023/10/01 03:31:09;;;;;;;9.90;3.58;;;;;;;;;;5046837;28;20033;-42
2023/10/01 03:33:40;;;;;;;14.35;3.38;;;;;;;;;;5050152;28;20123;-40
2023/10/01 03:36:11;;;;;;;16.15;4.13;;;;;;;;;;5052258;28;20028;-40
2023/10/01 03:38:39;;;;;;;15.35;3.67;;;;;;;;;;5050280;28;20378;-42
2023/10/01 03:41:08;;;;;;;16.17;3.58;;;;;;;;;;5034524;28;20025;-42
2023/10/01 03:43:36;;;;;;;10.88;3.55;;;;;;;;;;5051310;28;20662;-42
2023/10/01 03:46:28;;;;;;;8.48;3.20;;;;;;;;;;5033737;28;20139;-39
2023/10/01 03:48:58;;;;;;;11.82;3.40;;;;;;;;;;5049195;28;20036;-41
2023/10/01 03:51:52;;;;;;;12.30;3.45;;;;;;;;;;5052337;28;20054;-40
2023/10/01 03:54:20;;;;;;;17.98;3.33;;;;;;;;;;5052858;28;20063;-40
2023/10/01 03:56:57;;;;;;;11.10;3.08;;;;;;;;;;5052461;28;20017;-41
2023/10/01 03:59:25;;;;;;;12.68;3.13;;;;;;;;;;5052679;28;20055;-39
2023/10/01 04:02:02;;;;;;;11.48;3.67;;;;;;;;;;5052317;28;20021;-42
2023/10/01 04:05:21;;;;;;;9.75;3.33;;;;;;;;;;5050316;28;20056;-39
2023/10/01 04:07:26;;;;;;;11.32;3.13;;;;;;;;;;5038620;28;20773;-41
2023/10/01 04:09:57;;;;;;;14.43;2.78;;;;;;;;;;5052615;28;20090;-40
2023/10/01 04:12:32;;;;;;;10.90;3.03;;;;;;;;;;5052256;28;20025;-41
2023/10/01 04:15:03;;;;;;;12.27;3.17;;;;;;;;;;5052166;28;20440;-43
2023/10/01 04:17:35;;;;;;;8.43;2.63;;;;;;;;;;5052152;28;20052;-42
2023/10/01 04:20:19;;;;;;;13.30;2.88;;;;;;;;;;5051830;28;20041;-42
2023/10/01 04:22:47;;;;;;;5.88;2.33;;;;;;;;;;5051600;28;20095;-43
2023/10/01 04:25:14;;;;;;;10.10;3.30;;;;;;;;;;5051565;28;20036;-41
2023/10/01 04:27:42;;;;;;;8.25;2.50;;;;;;;;;;5051730;28;20036;-40
2023/10/01 04:30:14;;;;;;;14.35;2.55;;;;;;;;;;5052024;28;20052;-41
2023/10/01 04:32:42;;;;;;;10.13;2.22;;;;;;;;;;5052051;28;20479;-40
2023/10/01 04:35:16;;;;;;;10.45;2.58;;;;;;;;;;5051941;28;20073;-40
2023/10/01 04:37:44;;;;;;;8.27;2.60;;;;;;;;;;5051959;28;20483;-39
2023/10/01 04:43:01;;;;;;;10.50;2.55;;;;;;;;;;5052055;28;20124;-41
2023/10/01 04:45:36;;;;;;;9.60;2.30;;;;;;;;;;5051870;28;20514;-41
2023/10/01 04:48:15;;;;;;;9.55;2.40;;;;;;;;;;5051695;28;20033;-40
2023/10/01 04:50:42;;;;;;;10.38;2.50;;;;;;;;;;5051627;28;20040;-41
2023/10/01 04:53:13;;;;;;;9.55;2.38;;;;;;;;;;5051737;28;20025;-40
2023/10/01 04:55:43;;;;;;;14.10;3.10;;;;;;;;;;5051400;28;20472;-39
2023/10/01 04:58:14;;;;;;;9.55;2.00;;;;;;;;;;5051254;28;20126;-39
2023/10/01 05:00:45;;;;;;;7.60;2.08;;;;;;;;;;5051593;28;20491;-40
2023/10/01 05:03:15;;;;;;;8.35;1.73;;;;;;;;;;5051505;28;20029;-39
2023/10/01 05:05:48;;;;;;;8.30;2.03;;;;;;;;;;5033545;28;20510;-39
2023/10/01 05:08:15;;;;;;;6.53;2.08;;;;;;;;;;5032585;28;20399;-41
2023/10/01 05:10:52;;;;;;;8.40;2.00;;;;;;;;;;5051569;28;20102;-42
2023/10/01 05:13:23;;;;;;;9.20;2.03;;;;;;;;;;5051398;28;20036;-42
2023/10/01 05:15:55;;;;;;;6.50;1.90;;;;;;;;;;5051364;28;20036;-41
2023/10/01 05:18:30;;;;;;;10.82;2.00;;;;;;;;;;5051562;28;20041;-42
2023/10/01 05:21:04;;;;;;;6.97;1.55;;;;;;;;;;5051136;28;20052;-42
2023/10/01 05:23:31;;;;;;;6.82;2.22;;;;;;;;;;5051172;28;20036;-42
2023/10/01 05:25:59;;;;;;;7.60;1.80;;;;;;;;;;5051148;28;20039;-41
2023/10/01 05:28:34;;;;;;;6.75;1.65;;;;;;;;;;5051210;28;20471;-42
2023/10/01 05:31:05;;;;;;;6.85;1.55;;;;;;;;;;5050929;28;20040;-42
2023/10/01 05:33:36;;;;;;;6.32;1.77;;;;;;;;;;5051283;28;20033;-42
2023/10/01 05:36:08;;;;;;;5.25;1.60;;;;;;;;;;5051302;28;20068;-42
2023/10/01 05:38:37;;;;;;;10.35;1.60;;;;;;;;;;5050979;28;20079;-41
2023/10/01 05:41:13;;;;;;;5.50;1.45;;;;;;;;;;5050997;28;20025;-42
2023/10/01 05:43:43;;;;;;;4.35;1.30;;;;;;;;;;5051296;28;20040;-42
2023/10/01 05:46:14;;;;;;;8.48;1.73;;;;;;;;;;5051292;28;20035;-42
2023/10/01 05:48:43;;;;;;;4.22;1.50;;;;;;;;;;5050873;28;20053;-41
2023/10/01 05:51:18;;;;;;;7.55;1.60;;;;;;;;;;5050898;28;20025;-42
2023/10/01 05:53:45;;;;;;;6.45;1.45;;;;;;;;;;5051199;28;20601;-42
2023/10/01 05:56:19;;;;;;;9.05;1.30;;;;;;;;;;5051095;28;20033;-42
2023/10/01 05:58:47;;;;;;;5.70;1.50;;;;;;;;;;5051142;28;20057;-43
2023/10/01 06:01:14;;;;;;;3.90;1.40;;;;;;;;;;5044983;28;20449;-41
2023/10/01 06:03:42;;;;;;;8.10;1.75;;;;;;;;;;5056812;28;20060;-40
2023/10/01 06:06:36;;;;;;;3.17;1.00;;;;;;;;;;5071152;28;20033;-41
2023/10/01 06:09:09;;;;;;;6.38;1.40;;;;;;;;;;5072464;28;20071;-41
2023/10/01 06:11:39;;;;;;;9.02;1.40;;;;;;;;;;5074662;28;20068;-41
2023/10/01 06:15:03;;;;;;;4.85;1.58;;;;;;;;;;5074696;28;20020;-41
2023/10/01 06:17:05;;;;;;;3.83;1.40;;;;;;;;;;5066495;28;20558;-41
2023/10/01 06:19:32;;;;;;;5.70;1.38;;;;;;;;;;5074530;28;20043;-40
2023/10/01 06:22:12;;;;;;;4.53;1.40;;;;;;;;;;5074651;28;20043;-41
2023/10/01 06:24:43;;;;;;;4.05;1.35;;;;;;;;;;5074351;28;20101;-41
2023/10/01 06:27:17;;;;;;;5.85;1.35;;;;;;;;;;5069949;28;20079;-42
2023/10/01 06:29:51;;;;;;;4.07;1.33;;;;;;;;;;5054448;28;20040;-41
2023/10/01 06:32:22;;;;;;;5.55;1.55;;;;;;;;;;5054237;28;20476;-41
2023/10/01 06:34:51;;;;;;;3.25;1.20;;;;;;;;;;5054073;28;20140;-41
2023/10/01 06:37:19;;;;;;;5.25;1.38;;;;;;;;;;5054247;28;20115;-42
2023/10/01 06:39:46;;;;;;;7.45;1.40;;;;;;;;;;5054387;28;20033;-42
2023/10/01 06:42:20;;;;;;;3.65;1.40;;;;;;;;;;5054087;28;20041;-42
2023/10/01 06:44:52;;;;;;;4.55;1.20;;;;;;;;;;5054018;28;20450;-42
2023/10/01 06:47:23;;;;;;;4.65;1.40;;;;;;;;;;5054215;28;20417;-42
2023/10/01 06:49:57;;;;;;;3.13;1.42;;;;;;;;;;5054196;28;20029;-42
2023/10/01 06:52:28;;;;;;;6.05;1.30;;;;;;;;;;5053858;28;20036;-41
2023/10/01 06:54:56;;;;;;;4.18;1.27;;;;;;;;;;5053938;28;20129;-41
2023/10/01 06:57:27;;;;;;;4.85;1.50;;;;;;;;;;5053882;28;20065;-41
2023/10/01 06:59:57;;;;;;;6.17;1.13;;;;;;;;;;5053853;28;20033;-40
2023/10/01 07:02:27;;;;;;;2.72;0.88;;;;;;;;;;5053880;28;20051;-41
2023/10/01 07:05:00;;;;;;;4.25;1.00;;;;;;;;;;5053811;28;20045;-40
2023/10/01 07:07:31;;;;;;;3.55;1.30;;;;;;;;;;5053798;28;20056;-40
2023/10/01 07:10:00;;;;;;;5.50;1.10;;;;;;;;;;5053523;28;20052;-41
2023/10/01 07:12:27;;;;;;;4.45;1.20;;;;;;;;;;5053682;28;20100;-41
2023/10/01 07:14:54;;;;;;;5.65;1.30;;;;;;;;;;5053682;28;20108;-40
2023/10/01 07:17:25;;;;;;;4.25;1.00;;;;;;;;;;5053595;28;20037;-41
2023/10/01 07:19:59;;;;;;;2.22;1.02;;;;;;;;;;5053080;28;20041;-41
2023/10/01 07:22:30;;;;;;;4.78;1.30;;;;;;;;;;5053540;28;20061;-40
2023/10/01 07:24:57;;;;;;;5.03;1.20;;;;;;;;;;5053255;28;20037;-40
2023/10/01 07:27:24;;;;;;;4.68;1.27;;;;;;;;;;5053539;28;20053;-41
2023/10/01 07:29:54;;;;;;;3.97;1.17;;;;;;;;;;5053540;28;20032;-41
2023/10/01 07:32:22;;;;;;;3.95;1.20;;;;;;;;;;5053187;28;20506;-41
2023/10/01 07:34:58;;;;;;;4.45;1.15;;;;;;;;;;5053171;28;20479;-41
2023/10/01 07:37:37;;;;;;;5.30;1.23;;;;;;;;;;5053002;28;20116;-41
2023/10/01 07:40:16;;;;;;;3.45;1.20;;;;;;;;;;5053085;28;20441;-41
2023/10/01 07:42:54;;;;;;;3.35;1.25;;;;;;;;;;5053090;28;20402;-41
2023/10/01 07:45:22;;;;;;;2.22;0.93;;;;;;;;;;5053029;28;20110;-41
2023/10/01 07:47:51;;;;;;;4.00;1.08;;;;;;;;;;5053012;28;20040;-41
2023/10/01 07:50:18;;;;;;;5.30;1.13;;;;;;;;;;5052646;28;20037;-41
2023/10/01 07:52:46;;;;;;;3.17;0.80;;;;;;;;;;5052971;28;20439;-41
2023/10/01 07:55:35;;;;;;;3.88;0.90;;;;;;;;;;5052831;28;20025;-41
2023/10/01 07:58:23;;;;;;;2.85;1.05;;;;;;;;;;5052913;28;20041;-41
2023/10/01 08:00:59;;;;;;;3.72;1.02;;;;;;;;;;5052670;28;20060;-41
2023/10/01 08:06:16;;;;;;;3.53;0.93;;;;;;;;;;5052762;28;20426;-41
2023/10/01 08:08:47;;;;;;;3.20;1.10;;;;;;;;;;5051764;28;20083;-41
2023/10/01 08:14:00;;;;;;;2.17;0.90;;;;;;;;;;5052691;28;20560;-40
2023/10/01 08:16:26;;;;;;;2.90;1.08;;;;;;;;;;5052394;28;20086;-41
2023/10/01 08:19:05;;;;;;;2.30;0.95;;;;;;;;;;5052076;28;20025;-41
2023/10/01 08:21:38;;;;;;;3.47;1.17;;;;;;;;;;5052171;28;20043;-41
2023/10/01 08:24:13;;;;;;;1.50;0.70;;;;;;;;;;5052369;28;20029;-41
2023/10/01 08:26:43;;;;;;;2.05;0.70;;;;;;;;;;5052236;28;20045;-41
2023/10/01 08:29:14;;;;;;;2.78;0.85;;;;;;;;;;5052487;28;20033;-41
2023/10/01 08:34:23;;;;;;;4.90;0.82;;;;;;;;;;5052126;28;20041;-41
2023/10/01 08:36:54;;;;;;;2.40;1.17;;;;;;;;;;5052099;28;20033;-41
2023/10/01 08:39:47;;;;;;;2.92;1.00;;;;;;;;;;5051947;28;20047;-40
2023/10/01 08:42:16;;;;;;;3.88;1.02;;;;;;;;;;5051490;28;20114;-40
2023/10/01 08:44:46;;;;;;;3.13;0.98;;;;;;;;;;5051894;28;20052;-41
2023/10/01 08:47:35;;;;;;;3.63;0.82;;;;;;;;;;5051974;28;20526;-42
2023/10/01 08:50:26;;;;;;;5.53;1.30;;;;;;;;;;5051574;28;20392;-42
2023/10/01 08:52:58;;;;;;;2.97;0.88;;;;;;;;;;5051583;28;20491;-41
2023/10/01 08:58:15;;;;;;;2.22;0.90;;;;;;;;;;5051722;28;20468;-42
2023/10/01 09:00:49;;;;;;;2.38;0.95;;;;;;;;;;5051439;28;20040;-42
2023/10/01 09:03:29;;;;;;;3.53;0.90;;;;;;;;;;5051734;28;20051;-42
2023/10/01 09:06:08;;;;;;;2.75;0.90;;;;;;;;;;5051543;28;20037;-42
2023/10/01 09:08:42;;;;;;;3.33;1.00;;;;;;;;;;5051502;28;20140;-42
2023/10/01 09:11:14;;;;;;;4.70;0.98;;;;;;;;;;5051410;28;20124;-42
2023/10/01 09:13:47;;;;;;;2.42;0.73;;;;;;;;;;5051426;28;20040;-42
2023/10/01 09:16:15;;;;;;;2.00;0.82;;;;;;;;;;5051458;28;20041;-42
2023/10/01 09:19:43;;;;;;;2.67;0.93;;;;;;;;;;5051272;28;20043;-42
2023/10/01 09:21:46;;;;;;;2.75;0.80;;;;;;;;;;5039893;28;20150;-41
2023/10/01 09:24:39;;;;;;;2.47;0.90;;;;;;;;;;5050548;28;20047;-41
2023/10/01 09:27:18;;;;;;;2.38;0.70;;;;;;;;;;5050067;28;20037;-40
2023/10/01 09:29:48;;;;;;;3.10;0.90;;;;;;;;;;5051364;28;20363;-41
2023/10/01 09:32:19;;;;;;;1.95;0.77;;;;;;;;;;5050738;28;20517;-42
2023/10/01 09:34:57;;;;;;;2.22;0.68;;;;;;;;;;5050959;28;20051;-42
2023/10/01 09:37:52;;;;;;;4.03;0.88;;;;;;;;;;5051262;28;20037;-42
2023/10/01 09:43:03;;;;;;;3.28;0.90;;;;;;;;;;5052414;28;20483;-41
2023/10/01 09:45:46;;;;;;;1.83;0.80;;;;;;;;;;5052423;28;20491;-42
2023/10/01 09:48:30;;;;;;;3.28;0.82;;;;;;;;;;5035265;28;20145;-41
2023/10/01 09:51:03;;;;;;;6.25;0.88;;;;;;;;;;5044965;28;20029;-40
2023/10/01 09:53:31;;;;;;;4.88;0.82;;;;;;;;;;5055121;28;20033;-41
2023/10/01 09:55:59;;;;;;;5.38;0.90;;;;;;;;;;5055241;28;20474;-40
2023/10/01 09:58:28;;;;;;;7.07;1.15;;;;;;;;;;5055235;28;20479;-40
2023/10/01 10:00:59;;;;;;;5.35;1.05;;;;;;;;;;5054940;28;20033;-41
2023/10/01 10:03:27;;;;;;;7.32;1.13;;;;;;;;;;5055322;28;20041;-41
2023/10/01 10:05:54;;;;;;;9.98;1.10;;;;;;;;;;5055097;28;20036;-41
2023/10/01 10:08:26;;;;;;;4.63;1.00;;;;;;;;;;5055096;28;20387;-41
2023/10/01 10:10:55;;;;;;;3.88;0.98;;;;;;;;;;5054821;28;20482;-41
2023/10/01 10:13:38;;;;;;;6.07;0.95;;;;;;;;;;5054839;28;20032;-40
2023/10/01 10:19:05;;;;;;;2.22;0.68;;;;;;;;;;5054983;28;20051;-41
2023/10/01 10:22:04;;;;;;;4.20;1.00;;;;;;;;;;5054765;28;20029;-41
2023/10/01 10:24:31;;;;;;;6.50;1.08;;;;;;;;;;5054681;28;20569;-41
2023/10/01 10:27:06;;;;;;;6.80;1.23;;;;;;;;;;5054714;28;20032;-41
2023/10/01 10:29:56;;;;;;;5.25;0.85;;;;;;;;;;5054535;28;20032;-40
2023/10/01 10:32:26;;;;;;;5.35;1.10;;;;;;;;;;5054396;28;20025;-41
2023/10/01 10:35:06;;;;;;;2.00;0.80;;;;;;;;;;5054307;28;20040;-41
2023/10/01 10:37:53;;;;;;;3.38;0.90;;;;;;;;;;5036638;28;20036;-40
2023/10/01 10:40:26;;;;;;;3.75;0.88;;;;;;;;;;5036754;28;20044;-41
2023/10/01 10:42:59;;;;;;;6.25;1.20;;;;;;;;;;5054250;28;20403;-41
2023/10/01 10:45:29;;;;;;;6.60;0.90;;;;;;;;;;5054402;28;20025;-41
2023/10/01 10:48:03;;;;;;;2.67;1.00;;;;;;;;;;5054207;28;20033;-40
2023/10/01 10:50:49;;;;;;;6.60;0.80;;;;;;;;;;5054192;28;20032;-41
2023/10/01 10:53:22;;;;;;;2.55;0.73;;;;;;;;;;5054084;28;20386;-41
2023/10/01 10:56:05;;;;;;;5.38;1.30;;;;;;;;;;5052897;28;20033;-40
2023/10/01 10:58:44;;;;;;;3.15;0.90;;;;;;;;;;5054088;28;20170;-40
2023/10/01 11:01:16;;;;;;;7.05;1.00;;;;;;;;;;5053939;28;20037;-40
2023/10/01 11:03:44;;;;;;;13.68;1.73;;;;;;;;;;5054007;28;20556;-40
2023/10/01 11:06:16;;;;;;;25.60;2.13;;;;;;;;;;5053900;28;20037;-41
2023/10/01 11:08:53;;;;;;;19.90;2.40;;;;;;;;;;5053606;28;20088;-40
2023/10/01 11:11:25;;;;;;;19.10;2.13;;;;;;;;;;5053740;28;20506;-40
2023/10/01 11:14:00;;;;;;;26.20;2.72;;;;;;;;;;5053611;28;20040;-40
2023/10/01 11:16:36;;;;;;;23.55;2.92;;;;;;;;;;5053624;28;20036;-40
2023/10/01 11:19:13;;;;;;;21.40;2.72;;;;;;;;;;5035612;28;20048;-40
2023/10/01 11:21:54;;;;;;;22.70;2.28;;;;;;;;;;5053625;28;20111;-40
2023/10/01 11:24:41;;;;;;;20.67;2.58;;;;;;;;;;5053485;28;20041;-40
2023/10/01 11:27:19;;;;;;;15.35;2.28;;;;;;;;;;5053501;28;20103;-40
2023/10/01 11:30:16;;;;;;;26.80;2.65;;;;;;;;;;5053605;28;20505;-40
2023/10/01 11:33:01;;;;;;;19.40;2.80;;;;;;;;;;5051194;28;20834;-40
2023/10/01 11:35:32;;;;;;;13.55;2.20;;;;;;;;;;5050786;28;20044;-41
2023/10/01 11:38:07;;;;;;;15.23;2.17;;;;;;;;;;5052764;28;20108;-41
2023/10/01 11:43:27;;;;;;;14.57;2.40;;;;;;;;;;5052830;28;20094;-41
2023/10/01 11:46:19;;;;;;;19.00;2.45;;;;;;;;;;5052453;28;20470;-41
2023/10/01 11:49:02;;;;;;;9.57;1.80;;;;;;;;;;5050548;28;20021;-40
2023/10/01 11:51:43;;;;;;;11.85;1.92;;;;;;;;;;5050812;28;20025;-41
2023/10/01 11:54:14;;;;;;;13.13;1.90;;;;;;;;;;5050998;28;20043;-41
2023/10/01 11:56:42;;;;;;;13.30;1.98;;;;;;;;;;5052395;28;20033;-41
2023/10/01 11:59:11;;;;;;;10.88;1.67;;;;;;;;;;5052486;28;20094;-41
2023/10/01 12:01:39;;;;;;;8.75;1.52;;;;;;;;;;5052138;28;20064;-41
2023/10/01 12:04:09;;;;;;;9.05;1.85;;;;;;;;;;5052031;28;20048;-41
2023/10/01 12:06:38;;;;;;;8.35;1.73;;;;;;;;;;5051187;28;20418;-41
2023/10/01 12:09:05;;;;;;;12.50;1.67;;;;;;;;;;5049828;28;20025;-42
2023/10/01 12:11:36;;;;;;;7.85;1.95;;;;;;;;;;5051978;28;20083;-41
2023/10/01 12:14:09;;;;;;;12.98;1.75;;;;;;;;;;5049625;28;20062;-40
2023/10/01 12:16:40;;;;;;;8.10;1.45;;;;;;;;;;5052060;28;20033;-40
2023/10/01 12:19:25;;;;;;;9.48;1.50;;;;;;;;;;5049593;28;20028;-41
2023/10/01 12:22:09;;;;;;;6.60;1.02;;;;;;;;;;5051093;28;20028;-41
2023/10/01 12:24:49;;;;;;;8.18;1.23;;;;;;;;;;5052207;28;20108;-41
2023/10/01 12:30:01;;;;;;;4.03;1.17;;;;;;;;;;5052403;28;20044;-41
2023/10/01 12:32:41;;;;;;;4.50;1.10;;;;;;;;;;5052252;28;20028;-41
2023/10/01 12:35:18;;;;;;;11.57;1.50;;;;;;;;;;5050318;28;20120;-41
2023/10/01 12:37:46;;;;;;;5.22;1.80;;;;;;;;;;5078886;22;20051;-35
2023/10/01 12:40:16;;;;;;;5.57;1.20;;;;;;;;;;5067489;28;20058;-35
2023/10/01 12:42:50;;;;;;;6.43;1.58;;;;;;;;;;5071897;28;20448;-35
2023/10/01 12:45:22;;;;;;;6.97;1.40;;;;;;;;;;5071974;28;20081;-35
2023/10/01 12:47:52;;;;;;;13.90;1.67;;;;;;;;;;5071840;28;20042;-35
2023/10/01 12:50:29;;;;;;;8.18;1.67;;;;;;;;;;5071959;28;20052;-35
2023/10/01 12:55:51;;;;;;;7.88;1.45;;;;;;;;;;5071584;28;20033;-35
2023/10/01 12:58:39;;;;;;;6.25;1.13;;;;;;;;;;5060516;28;20547;-35
2023/10/01 13:03:56;;;;;;;12.13;1.50;;;;;;;;;;5071666;28;20201;-35
2023/10/01 13:06:23;;;;;;;10.77;1.17;;;;;;;;;;5071713;28;20059;-34
2023/10/01 13:08:50;;;;;;;5.80;1.30;;;;;;;;;;5071608;28;20028;-36
2023/10/01 13:14:18;;;;;;;10.32;1.70;;;;;;;;;;5071620;28;20044;-36
2023/10/01 13:16:52;;;;;;;8.32;1.20;;;;;;;;;;5071235;28;20029;-35
2023/10/01 13:19:23;;;;;;;6.47;1.50;;;;;;;;;;5071654;28;20028;-36
2023/10/01 13:21:50;;;;;;;8.25;1.27;;;;;;;;;;5070319;28;20040;-37
2023/10/01 13:24:17;;;;;;;7.25;1.38;;;;;;;;;;5071351;28;20028;-36
2023/10/01 13:26:44;;;;;;;6.30;1.20;;;;;;;;;;5071042;28;20147;-36
2023/10/01 13:29:28;;;;;;;7.97;1.50;;;;;;;;;;5064796;28;20500;-35
2023/10/01 13:32:02;;;;;;;11.57;1.33;;;;;;;;;;5068482;28;20401;-36
2023/10/01 13:34:48;;;;;;;4.68;1.40;;;;;;;;;;5064532;28;20043;-35
2023/10/01 13:40:12;;;;;;;5.90;1.30;;;;;;;;;;5061703;28;20032;-35
2023/10/01 14:10:16;;;;;;;10.07;1.42;;;;;;;;;;5063369;28;20509;-36
2023/10/01 14:12:55;;;;;;;12.80;1.65;;;;;;;;;;5061063;28;20037;-35
2023/10/01 14:15:23;;;;;;;8.88;1.63;;;;;;;;;;5062173;28;20086;-35
2023/10/01 14:17:54;;;;;;;16.20;2.00;;;;;;;;;;5065183;28;20036;-35
2023/10/01 14:20:37;;;;;;;7.75;1.50;;;;;;;;;;5067887;28;20029;-35
2023/10/01 14:23:07;;;;;;;6.78;1.45;;;;;;;;;;5063291;28;20037;-36
2023/10/01 14:25:52;;;;;;;9.35;1.88;;;;;;;;;;5061269;28;20036;-35
2023/10/01 14:28:23;;;;;;;12.18;1.65;;;;;;;;;;5057599;28;20503;-35
2023/10/01 14:31:02;;;;;;;9.48;1.65;;;;;;;;;;5073677;28;20428;-35
2023/10/01 14:33:30;;;;;;;14.20;2.10;;;;;;;;;;5074433;28;20417;-36
2023/10/01 14:36:06;;;;;;;10.82;1.60;;;;;;;;;;5073715;28;20429;-34
2023/10/01 14:38:37;;;;;;;19.45;1.88;;;;;;;;;;5074282;28;20059;-35
2023/10/01 14:41:10;;;;;;;19.73;2.92;;;;;;;;;;5074370;28;20029;-35
2023/10/01 14:43:49;;;;;;;40.80;3.45;;;;;;;;;;5068642;28;20478;-35
2023/10/01 14:46:16;;;;;;;40.80;4.90;;;;;;;;;;5056592;28;20036;-35
2023/10/01 14:48:47;;;;;;;48.53;4.72;;;;;;;;;;5070431;28;20029;-34
2023/10/01 14:51:15;;;;;;;40.00;4.18;;;;;;;;;;5073856;28;20101;-35
2023/10/01 14:53:42;;;;;;;42.65;5.38;;;;;;;;;;5064958;28;20107;-35
2023/10/01 14:56:11;;;;;;;36.45;4.00;;;;;;;;;;5067070;28;20035;-35
2023/10/01 14:58:39;;;;;;;29.70;4.05;;;;;;;;;;5064905;28;20111;-34
2023/10/01 15:01:08;;;;;;;39.20;4.63;;;;;;;;;;5073360;28;20040;-35
2023/10/01 15:03:36;;;;;;;28.73;3.85;;;;;;;;;;5073474;28;20036;-35
2023/10/01 15:06:07;;;;;;;36.97;4.60;;;;;;;;;;5069956;28;20013;-35
2023/10/01 15:08:35;;;;;;;29.45;4.85;;;;;;;;;;5073385;28;20031;-37
2023/10/01 15:11:12;;;;;;;32.63;7.65;;;;;;;;;;5069774;28;20047;-36
2023/10/01 15:13:46;;;;;;;42.85;8.25;;;;;;;;;;5067395;28;20439;-35
2023/10/01 15:16:14;;;;;;;50.63;8.20;;;;;;;;;;5073043;28;20028;-36
2023/10/01 15:18:42;;;;;;;32.67;7.53;;;;;;;;;;5073068;28;20060;-36
2023/10/01 15:21:30;;;;;;;29.25;6.45;;;;;;;;;;5073723;28;20025;-36
2023/10/01 15:24:00;;;;;;;30.48;6.45;;;;;;;;;;5073583;28;20162;-35
2023/10/01 15:26:31;;;;;;;30.65;5.82;;;;;;;;;;5073387;28;20524;-35
2023/10/01 15:29:00;;;;;;;28.05;6.28;;;;;;;;;;5073037;28;21070;-35
2023/10/01 15:31:31;;;;;;;31.77;6.10;;;;;;;;;;5073450;28;20373;-36
2023/10/01 15:34:01;;;;;;;29.42;6.07;;;;;;;;;;5063589;28;20471;-36
2023/10/01 15:36:52;;;;;;;26.17;5.20;;;;;;;;;;5062543;28;20020;-35
2023/10/01 15:42:11;;;;;;;28.70;5.80;;;;;;;;;;5061808;28;20086;-34
2023/10/01 15:44:48;;;;;;;21.95;5.20;;;;;;;;;;5061512;28;20555;-34
2023/10/01 15:50:08;;;;;;;22.63;5.72;;;;;;;;;;5064968;28;20133;-36
2023/10/01 15:52:49;;;;;;;24.27;5.97;;;;;;;;;;5064144;28;20061;-35
2023/10/01 15:55:16;;;;;;;23.98;6.30;;;;;;;;;;5063117;28;20044;-35
2023/10/01 15:57:54;;;;;;;18.45;5.90;;;;;;;;;;5055412;28;20021;-35
2023/10/01 16:00:27;;;;;;;31.17;7.38;;;;;;;;;;5068388;28;20449;-36
2023/10/01 16:03:02;;;;;;;27.00;7.28;;;;;;;;;;5071647;28;20028;-36
2023/10/01 16:05:31;;;;;;;25.83;7.05;;;;;;;;;;5057361;28;20021;-36
2023/10/01 16:07:58;;;;;;;23.83;6.88;;;;;;;;;;5054789;28;20506;-37
2023/10/01 16:10:25;;;;;;;38.90;7.45;;;;;;;;;;5072402;28;20028;-37
2023/10/01 16:12:52;;;;;;;41.50;7.45;;;;;;;;;;5070973;28;20029;-38
2023/10/01 16:15:20;;;;;;;32.30;8.63;;;;;;;;;;5071921;28;20028;-38
2023/10/01 16:17:47;;;;;;;27.95;8.90;;;;;;;;;;5072168;28;20539;-42
2023/10/01 16:20:18;;;;;;;31.27;9.75;;;;;;;;;;5071858;28;20044;-39
2023/10/01 16:22:45;;;;;;;25.65;9.18;;;;;;;;;;5064290;28;20029;-38
2023/10/01 16:25:12;;;;;;;37.10;11.10;;;;;;;;;;5076403;28;20107;-37
2023/10/01 16:27:40;;;;;;;58.85;17.60;;;;;;;;;;5060044;28;20120;-38
2023/10/01 16:30:11;;;;;;;76.65;22.23;;;;;;;;;;5052202;28;20037;-39
2023/10/01 16:32:47;;;;;;;100.20;27.95;;;;;;;;;;5066107;28;20036;-39
2023/10/01 16:35:19;;;;;;;102.25;26.83;;;;;;;;;;5068061;28;20036;-42
2023/10/01 16:37:50;;;;;;;119.07;28.40;;;;;;;;;;5062772;28;20106;-37
2023/10/01 16:40:21;;;;;;;113.35;31.00;;;;;;;;;;5068371;28;20517;-36